createdAt,value
2019-03-28T00:01:15.609Z,48.60
2019-03-28T00:03:19.345Z,48.40
2019-03-28T00:05:23.145Z,48.10
2019-03-28T00:07:26.737Z,48.40
2019-03-28T00:09:30.421Z,48.70
2019-03-28T00:11:34.097Z,48.90
2019-03-28T00:13:37.771Z,49.30
2019-03-28T00:15:41.564Z,49.80
2019-03-28T00:17:45.139Z,48.30
2019-03-28T00:19:48.790Z,49.60
2019-03-28T00:21:52.525Z,50.70
2019-03-28T00:23:57.880Z,50.40
2019-03-28T00:26:01.582Z,50.20
2019-03-28T00:28:05.297Z,49.20
2019-03-28T00:30:09.331Z,50.20
2019-03-28T00:32:13.030Z,49.70
2019-03-28T00:34:16.623Z,49.70
2019-03-28T00:36:20.440Z,49.30
2019-03-28T00:38:24.087Z,48.70
2019-03-28T00:40:27.789Z,48.10
2019-03-28T00:42:31.378Z,48.40
2019-03-28T00:44:35.046Z,47.80
2019-03-28T00:46:38.741Z,47.60
2019-03-28T00:48:42.496Z,48.10
2019-03-28T00:50:46.187Z,48.00
2019-03-28T00:52:49.792Z,47.90
2019-03-28T00:54:53.399Z,47.50
2019-03-28T00:56:57.116Z,48.10
2019-03-28T00:59:00.729Z,48.40
2019-03-28T01:01:05.109Z,47.50
2019-03-28T01:03:08.896Z,47.70
2019-03-28T01:05:12.959Z,48.00
2019-03-28T01:07:16.981Z,48.30
2019-03-28T01:09:21.415Z,48.20
2019-03-28T01:11:25.060Z,48.30
2019-03-28T01:13:28.883Z,48.70
2019-03-28T01:15:32.575Z,48.50
2019-03-28T01:17:36.251Z,48.90
2019-03-28T01:19:42.130Z,48.90
2019-03-28T01:21:45.825Z,49.00
2019-03-28T01:23:49.507Z,49.10
2019-03-28T01:25:53.316Z,49.20
2019-03-28T01:27:57.140Z,48.40
2019-03-28T01:30:00.914Z,49.60
2019-03-28T01:32:04.665Z,49.90
2019-03-28T01:34:10.292Z,50.40
2019-03-28T01:36:13.765Z,51.00
2019-03-28T01:38:17.436Z,51.40
2019-03-28T01:40:21.207Z,53.80
2019-03-28T01:42:25.042Z,54.50
2019-03-28T01:44:28.686Z,54.00
2019-03-28T01:46:32.326Z,54.00
2019-03-28T01:48:35.988Z,54.10
2019-03-28T01:50:39.741Z,54.00
2019-03-28T01:52:43.428Z,54.00
2019-03-28T01:54:47.070Z,54.60
2019-03-28T01:56:50.782Z,54.60
2019-03-28T01:58:55.172Z,54.40
2019-03-28T02:00:58.943Z,54.40
2019-03-28T02:03:06.830Z,54.00
2019-03-28T02:05:07.999Z,54.40
2019-03-28T02:07:11.670Z,53.70
2019-03-28T02:09:15.280Z,54.00
2019-03-28T02:11:19.019Z,53.90
2019-03-28T02:13:22.735Z,53.30
2019-03-28T02:15:26.496Z,53.60
2019-03-28T02:17:30.174Z,54.60
2019-03-28T02:19:33.825Z,54.70
2019-03-28T02:21:37.557Z,52.60
2019-03-28T02:23:41.206Z,54.20
2019-03-28T02:25:44.909Z,54.10
2019-03-28T02:27:48.587Z,54.60
2019-03-28T02:29:52.306Z,54.60
2019-03-28T02:31:55.993Z,55.00
2019-03-28T02:33:59.590Z,55.20
2019-03-28T02:36:03.291Z,56.50
2019-03-28T02:38:06.966Z,64.20
2019-03-28T02:40:10.994Z,65.90
2019-03-28T02:42:14.814Z,66.10
2019-03-28T02:44:18.492Z,67.00
2019-03-28T02:46:22.767Z,67.10
2019-03-28T02:48:27.648Z,67.40
2019-03-28T02:50:31.594Z,67.40
2019-03-28T02:52:35.672Z,67.00
2019-03-28T02:54:39.275Z,66.80
2019-03-28T02:56:43.033Z,66.50
2019-03-28T02:58:46.683Z,66.70
2019-03-28T03:00:50.718Z,66.10
2019-03-28T03:02:54.356Z,66.10
2019-03-28T03:04:58.074Z,65.90
2019-03-28T03:07:01.777Z,65.00
2019-03-28T03:09:08.464Z,64.90
2019-03-28T03:11:12.147Z,64.80
2019-03-28T03:13:15.803Z,64.90
2019-03-28T03:15:19.745Z,65.20
2019-03-28T03:17:23.552Z,65.30
2019-03-28T03:19:27.229Z,65.30
2019-03-28T03:21:30.842Z,65.10
2019-03-28T03:23:34.593Z,65.20
2019-03-28T03:25:38.430Z,65.20
2019-03-28T03:27:57.144Z,65.10
2019-03-28T03:29:47.475Z,64.90
2019-03-28T03:31:51.194Z,64.70
2019-03-28T03:33:54.796Z,64.80
2019-03-28T03:35:58.476Z,65.10
2019-03-28T03:38:02.059Z,65.20
2019-03-28T03:40:08.361Z,66.00
2019-03-28T03:42:12.152Z,65.90
2019-03-28T03:44:16.157Z,65.80
2019-03-28T03:46:20.131Z,68.60
2019-03-28T03:48:23.699Z,69.00
2019-03-28T03:50:28.788Z,69.20
2019-03-28T03:52:32.430Z,69.70
2019-03-28T03:54:36.083Z,69.60
2019-03-28T03:56:39.724Z,69.20
2019-03-28T03:58:43.389Z,69.70
2019-03-28T04:00:47.014Z,68.90
2019-03-28T04:02:50.698Z,68.50
2019-03-28T04:04:56.667Z,68.20
2019-03-28T04:06:59.587Z,68.00
2019-03-28T04:09:04.624Z,68.00
2019-03-28T04:11:08.595Z,68.20
2019-03-28T04:13:13.985Z,67.90
2019-03-28T04:15:17.742Z,68.20
2019-03-28T04:17:21.744Z,67.80
2019-03-28T04:19:25.558Z,67.70
2019-03-28T04:21:29.517Z,67.70
2019-03-28T04:23:33.097Z,67.80
2019-03-28T04:25:36.754Z,67.50
2019-03-28T04:27:42.056Z,68.10
2019-03-28T04:29:45.717Z,70.00
2019-03-28T04:31:49.499Z,69.50
2019-03-28T04:33:53.181Z,69.30
2019-03-28T04:35:56.897Z,70.50
2019-03-28T04:38:00.661Z,72.50
2019-03-28T04:40:06.575Z,73.90
2019-03-28T04:42:11.983Z,73.70
2019-03-28T04:44:15.643Z,73.60
2019-03-28T04:46:19.321Z,73.50
2019-03-28T04:48:22.965Z,73.70
2019-03-28T04:50:26.627Z,73.50
2019-03-28T04:52:31.960Z,73.20
2019-03-28T04:54:36.711Z,72.90
2019-03-28T04:56:40.438Z,72.60
2019-03-28T04:58:45.807Z,72.60
2019-03-28T05:00:49.376Z,72.50
2019-03-28T05:02:53.064Z,72.30
2019-03-28T05:04:56.786Z,72.40
2019-03-28T05:07:01.655Z,72.40
2019-03-28T05:09:06.293Z,72.50
2019-03-28T05:11:10.070Z,72.70
2019-03-28T05:13:14.240Z,73.30
2019-03-28T05:15:20.380Z,73.50
2019-03-28T05:17:23.833Z,74.20
2019-03-28T05:19:27.422Z,75.30
2019-03-28T05:21:31.453Z,75.20
2019-03-28T05:23:35.272Z,75.70
2019-03-28T05:25:40.640Z,76.20
2019-03-28T05:27:44.963Z,76.70
2019-03-28T05:29:48.700Z,76.60
2019-03-28T05:31:52.516Z,77.10
2019-03-28T05:33:56.408Z,81.10
2019-03-28T05:36:00.312Z,81.00
2019-03-28T05:38:04.204Z,81.80
2019-03-28T05:40:08.686Z,82.00
2019-03-28T05:42:12.672Z,81.50
2019-03-28T05:44:16.688Z,82.10
2019-03-28T05:46:20.647Z,82.80
2019-03-28T05:48:24.522Z,81.90
2019-03-28T05:50:28.337Z,81.70
2019-03-28T05:52:32.468Z,82.50
2019-03-28T05:54:36.401Z,82.40
2019-03-28T05:56:40.303Z,81.80
2019-03-28T05:58:44.111Z,82.30
2019-03-28T06:00:51.154Z,82.80
2019-03-28T06:02:53.460Z,82.70
2019-03-28T06:04:57.362Z,83.10
2019-03-28T06:07:01.306Z,83.70
2019-03-28T06:09:07.085Z,88.20
2019-03-28T06:11:10.938Z,90.70
2019-03-28T06:13:14.767Z,95.30
2019-03-28T06:15:18.665Z,99.00
2019-03-28T06:17:22.642Z,99.90
2019-03-28T06:19:26.600Z,99.90
2019-03-28T06:21:30.518Z,99.90
2019-03-28T06:23:36.377Z,99.90
2019-03-28T06:25:41.029Z,99.90
2019-03-28T06:27:45.064Z,99.90
2019-03-28T06:29:48.855Z,99.90
2019-03-28T06:31:55.502Z,99.90
2019-03-28T06:33:58.250Z,98.60
2019-03-28T06:36:02.337Z,98.20
2019-03-28T06:38:06.442Z,95.50
2019-03-28T06:40:11.468Z,94.50
2019-03-28T06:42:15.448Z,92.40
2019-03-28T06:44:19.281Z,80.20
2019-03-28T06:46:23.156Z,69.00
2019-03-28T06:48:27.113Z,72.70
2019-03-28T06:50:30.941Z,74.30
2019-03-28T06:52:34.730Z,69.80
2019-03-28T06:54:38.533Z,62.90
2019-03-28T06:56:43.422Z,57.60
2019-03-28T06:58:47.511Z,57.80
2019-03-28T07:00:51.419Z,57.80
2019-03-28T07:02:55.330Z,57.40
2019-03-28T07:04:59.168Z,57.30
2019-03-28T07:07:03.069Z,56.60
2019-03-28T07:09:08.634Z,52.40
2019-03-28T07:11:12.484Z,48.40
2019-03-28T07:13:16.471Z,46.40
2019-03-28T07:15:20.601Z,46.10
2019-03-28T07:17:24.642Z,46.60
2019-03-28T07:19:28.727Z,42.30
2019-03-28T07:21:32.586Z,46.10
2019-03-28T07:23:36.538Z,39.10
2019-03-28T07:25:40.451Z,39.00
2019-03-28T07:27:44.268Z,35.20
2019-03-28T07:29:51.201Z,36.90
2019-03-28T07:31:53.692Z,34.30
2019-03-28T07:33:57.537Z,32.00
2019-03-28T07:36:01.434Z,29.80
2019-03-28T07:38:05.273Z,28.60
2019-03-28T07:40:09.798Z,29.10
2019-03-28T07:42:13.651Z,26.30
2019-03-28T07:44:17.618Z,26.30
2019-03-28T07:46:22.056Z,24.80
2019-03-28T07:48:25.843Z,25.20
2019-03-28T07:50:29.787Z,24.50
2019-03-28T07:52:33.715Z,24.40
2019-03-28T07:54:37.736Z,24.00
2019-03-28T07:56:41.852Z,23.00
2019-03-28T07:58:45.767Z,21.20
2019-03-28T08:00:49.772Z,20.40
2019-03-28T08:02:54.611Z,18.70
2019-03-28T08:05:01.371Z,20.60
2019-03-28T08:07:04.579Z,19.10
2019-03-28T08:09:09.979Z,19.80
2019-03-28T08:11:13.858Z,19.70
2019-03-28T08:13:17.725Z,18.50
2019-03-28T08:15:21.571Z,17.40
2019-03-28T08:17:25.368Z,16.60
2019-03-28T08:19:29.442Z,13.10
2019-03-28T08:21:33.258Z,12.30
2019-03-28T08:23:37.174Z,12.20
2019-03-28T08:25:41.586Z,12.90
2019-03-28T08:27:45.873Z,12.90
2019-03-28T08:29:49.926Z,11.00
2019-03-28T08:31:54.877Z,11.10
2019-03-28T08:34:01.738Z,10.10
2019-03-28T08:36:04.542Z,10.50
2019-03-28T08:38:10.217Z,9.60
2019-03-28T08:40:17.252Z,8.30
2019-03-28T08:42:21.219Z,8.50
2019-03-28T08:44:25.152Z,7.20
2019-03-28T08:46:29.043Z,8.20
2019-03-28T08:48:32.929Z,8.70
2019-03-28T08:50:36.809Z,8.10
2019-03-28T08:52:40.588Z,7.50
2019-03-28T08:54:44.830Z,7.80
2019-03-28T08:56:48.728Z,5.70
2019-03-28T08:58:52.665Z,5.20
2019-03-28T09:00:56.515Z,6.20
2019-03-28T09:03:00.385Z,5.00
2019-03-28T09:05:05.281Z,5.30
2019-03-28T09:07:09.248Z,4.40
2019-03-28T09:09:13.152Z,1.30
2019-03-28T09:11:16.932Z,2.20
2019-03-28T09:13:20.898Z,3.30
2019-03-28T09:15:26.192Z,2.20
2019-03-28T09:17:30.057Z,2.00
2019-03-28T09:19:33.960Z,1.00
2019-03-28T09:21:37.820Z,2.30
2019-03-28T09:23:41.823Z,1.90
2019-03-28T09:25:45.634Z,1.00
2019-03-28T09:27:51.678Z,1.80
2019-03-28T09:29:55.291Z,1.00
2019-03-28T09:31:59.437Z,1.00
2019-03-28T09:34:03.409Z,1.20
2019-03-28T09:36:07.310Z,1.70
2019-03-28T09:38:11.286Z,1.00
2019-03-28T09:40:15.196Z,1.00
2019-03-28T09:42:19.133Z,1.00
2019-03-28T09:44:22.965Z,1.00
2019-03-28T09:46:26.826Z,1.00
2019-03-28T09:48:30.894Z,1.00
2019-03-28T09:50:35.021Z,1.00
2019-03-28T09:52:38.863Z,1.00
2019-03-28T09:54:42.821Z,1.00
2019-03-28T09:56:46.611Z,1.00
2019-03-28T09:58:50.544Z,1.00
2019-03-28T10:01:02.584Z,1.00
2019-03-28T10:03:00.584Z,1.00
2019-03-28T10:05:06.219Z,1.00
2019-03-28T10:07:10.285Z,1.00
2019-03-28T10:09:14.233Z,1.00
2019-03-28T10:11:18.204Z,1.00
2019-03-28T10:13:22.144Z,1.00
2019-03-28T10:15:25.939Z,1.00
2019-03-28T10:17:29.851Z,1.00
2019-03-28T10:19:33.829Z,1.00
2019-03-28T10:21:37.761Z,1.00
2019-03-28T10:23:42.663Z,1.00
2019-03-28T10:25:46.630Z,1.00
2019-03-28T10:27:50.585Z,1.00
2019-03-28T10:29:54.415Z,1.00
2019-03-28T10:31:58.300Z,1.00
2019-03-28T10:34:02.325Z,1.00
2019-03-28T10:36:06.234Z,1.00
2019-03-28T10:38:10.291Z,1.00
2019-03-28T10:40:14.298Z,1.00
2019-03-28T10:42:18.125Z,1.00
2019-03-28T10:44:22.233Z,1.00
2019-03-28T10:46:26.099Z,1.00
2019-03-28T10:48:30.220Z,1.00
2019-03-28T10:50:41.677Z,1.00
2019-03-28T10:52:39.673Z,1.00
2019-03-28T10:54:43.664Z,1.00
2019-03-28T10:56:52.143Z,1.00
2019-03-28T10:58:53.241Z,1.00
2019-03-28T11:00:57.145Z,1.00
2019-03-28T11:03:01.056Z,1.00
2019-03-28T11:05:06.066Z,1.00
2019-03-28T11:07:09.968Z,1.00
2019-03-28T11:09:13.882Z,1.00
2019-03-28T11:11:17.856Z,1.00
2019-03-28T11:13:21.676Z,1.00
2019-03-28T11:15:25.663Z,1.00
2019-03-28T11:17:31.246Z,1.00
2019-03-28T11:19:35.242Z,1.00
2019-03-28T11:21:39.086Z,1.00
2019-03-28T11:23:43.045Z,1.00
2019-03-28T11:25:46.945Z,1.00
2019-03-28T11:27:50.852Z,1.00
2019-03-28T11:29:54.930Z,1.00
2019-03-28T11:31:59.054Z,1.00
2019-03-28T11:34:04.411Z,1.00
2019-03-28T11:36:08.213Z,1.00
2019-03-28T11:38:12.110Z,1.00
2019-03-28T11:40:16.602Z,1.00
2019-03-28T11:42:20.506Z,1.00
2019-03-28T11:44:26.406Z,1.00
2019-03-28T11:46:30.102Z,1.00
2019-03-28T11:48:34.035Z,1.00
2019-03-28T11:50:38.310Z,1.00
2019-03-28T11:52:42.829Z,1.00
2019-03-28T11:54:46.880Z,1.00
2019-03-28T11:56:50.760Z,1.00
2019-03-28T11:58:54.629Z,1.00
2019-03-28T12:00:59.445Z,1.00
2019-03-28T12:03:04.396Z,1.00
2019-03-28T12:05:08.537Z,1.00
2019-03-28T12:07:12.444Z,1.00
2019-03-28T12:09:16.361Z,1.00
2019-03-28T12:11:21.572Z,1.00
2019-03-28T12:13:25.489Z,1.00
2019-03-28T12:15:29.425Z,1.00
2019-03-28T12:17:33.289Z,1.00
2019-03-28T12:19:41.259Z,1.00
2019-03-28T12:21:45.258Z,1.00
2019-03-28T12:23:49.207Z,1.00
2019-03-28T12:25:54.539Z,1.00
2019-03-28T12:28:00.505Z,1.00
2019-03-28T12:30:07.251Z,1.00
2019-03-28T12:32:14.291Z,1.00
2019-03-28T12:34:16.636Z,1.00
2019-03-28T12:36:20.558Z,1.00
2019-03-28T12:38:24.480Z,1.00
2019-03-28T12:40:28.807Z,1.00
2019-03-28T12:42:32.741Z,1.00
2019-03-28T12:44:37.224Z,1.00
2019-03-28T12:46:41.242Z,1.00
2019-03-28T12:48:45.998Z,1.00
2019-03-28T12:50:58.663Z,1.00
2019-03-28T12:52:58.313Z,1.00
2019-03-28T12:55:01.649Z,1.00
2019-03-28T12:57:05.524Z,1.00
2019-03-28T12:59:09.474Z,1.00
2019-03-28T13:01:13.398Z,1.00
2019-03-28T13:03:17.322Z,1.00
2019-03-28T13:05:21.203Z,1.00
2019-03-28T13:07:25.585Z,1.00
2019-03-28T13:09:29.685Z,1.00
2019-03-28T13:11:33.778Z,1.00
2019-03-28T13:13:37.647Z,1.00
2019-03-28T13:15:41.607Z,1.00
2019-03-28T13:17:45.507Z,1.00
2019-03-28T13:19:49.452Z,1.00
2019-03-28T13:21:53.579Z,1.00
2019-03-28T13:23:57.484Z,1.00
2019-03-28T13:26:01.676Z,1.00
2019-03-28T13:28:05.739Z,1.00
2019-03-28T13:30:13.630Z,1.00
2019-03-28T13:32:17.835Z,1.00
2019-03-28T13:34:21.806Z,1.00
2019-03-28T13:36:25.908Z,1.00
2019-03-28T13:38:29.842Z,1.00
2019-03-28T13:40:34.092Z,1.00
2019-03-28T13:42:38.795Z,1.00
2019-03-28T13:44:43.126Z,1.00
2019-03-28T13:46:48.018Z,1.00
2019-03-28T13:48:51.563Z,1.00
2019-03-28T13:50:55.212Z,1.00
2019-03-28T13:52:58.965Z,1.00
2019-03-28T13:55:02.547Z,1.00
2019-03-28T13:57:06.129Z,1.00
2019-03-28T13:59:09.860Z,1.00
2019-03-28T14:01:13.627Z,1.00
2019-03-28T14:03:17.279Z,1.00
2019-03-28T14:05:20.999Z,1.00
2019-03-28T14:07:24.703Z,1.00
2019-03-28T14:09:28.533Z,1.00
2019-03-28T14:11:32.154Z,1.00
2019-03-28T14:13:35.809Z,1.00
2019-03-28T14:15:39.467Z,1.00
2019-03-28T14:17:43.080Z,1.00
2019-03-28T14:19:46.752Z,1.00
2019-03-28T14:21:50.418Z,1.00
2019-03-28T14:23:58.072Z,1.00
2019-03-28T14:26:02.256Z,1.00
2019-03-28T14:28:06.317Z,1.00
2019-03-28T14:30:11.651Z,1.00
2019-03-28T14:32:16.598Z,1.00
2019-03-28T14:34:20.761Z,1.00
2019-03-28T14:36:27.133Z,1.00
2019-03-28T14:38:30.697Z,1.00
2019-03-28T14:40:34.289Z,1.00
2019-03-28T14:42:37.972Z,1.00
2019-03-28T14:44:43.344Z,1.00
2019-03-28T14:46:47.348Z,1.00
2019-03-28T14:48:51.287Z,1.00
2019-03-28T14:50:55.463Z,1.00
2019-03-28T14:52:59.172Z,1.00
2019-03-28T14:55:03.793Z,1.00
2019-03-28T14:57:07.532Z,1.00
2019-03-28T14:59:13.343Z,1.00
2019-03-28T15:01:16.955Z,1.00
2019-03-28T15:03:26.363Z,1.00
2019-03-28T15:05:26.307Z,1.00
2019-03-28T15:07:29.914Z,1.00
2019-03-28T15:09:34.060Z,1.00
2019-03-28T15:11:37.885Z,1.00
2019-03-28T15:13:41.635Z,1.00
2019-03-28T15:15:45.650Z,1.00
2019-03-28T15:17:50.624Z,1.00
2019-03-28T15:19:55.046Z,1.00
2019-03-28T15:21:59.734Z,1.00
2019-03-28T15:24:03.522Z,1.00
2019-03-28T15:26:07.462Z,1.00
2019-03-28T15:28:13.175Z,1.00
2019-03-28T15:30:19.044Z,1.00
2019-03-28T15:32:22.904Z,1.00
2019-03-28T15:34:26.565Z,1.00
2019-03-28T15:36:30.252Z,1.00
2019-03-28T15:38:33.953Z,1.00
2019-03-28T15:40:37.643Z,1.00
2019-03-28T15:42:41.417Z,1.00
2019-03-28T15:44:45.077Z,1.00
2019-03-28T15:46:49.006Z,1.00
2019-03-28T15:48:56.038Z,1.00
2019-03-28T15:50:59.754Z,1.00
2019-03-28T15:53:03.432Z,1.00
2019-03-28T15:55:07.638Z,1.00
2019-03-28T15:57:11.557Z,1.00
2019-03-28T15:59:15.209Z,1.00
2019-03-28T16:01:19.620Z,1.00
2019-03-28T16:03:24.732Z,1.00
2019-03-28T16:05:28.378Z,1.00
2019-03-28T16:07:33.390Z,1.00
2019-03-28T16:09:37.237Z,1.00
2019-03-28T16:11:43.893Z,1.00
2019-03-28T16:13:47.551Z,1.00
2019-03-28T16:15:51.629Z,1.00
2019-03-28T16:17:58.313Z,1.00
2019-03-28T16:20:06.449Z,1.00
2019-03-28T16:22:11.609Z,1.00
2019-03-28T16:24:15.703Z,1.00
2019-03-28T16:26:23.552Z,1.00
2019-03-28T16:28:33.378Z,1.00
2019-03-28T16:30:38.304Z,1.00
2019-03-28T16:32:42.012Z,1.00
2019-03-28T16:34:45.776Z,1.00
2019-03-28T16:36:49.808Z,1.00
2019-03-28T16:38:53.506Z,1.00
2019-03-28T16:40:57.870Z,1.00
2019-03-28T16:43:01.814Z,1.00
2019-03-28T16:45:09.237Z,1.00
2019-03-28T16:47:14.247Z,1.00
2019-03-28T16:49:18.265Z,1.00
2019-03-28T16:51:22.079Z,1.00
2019-03-28T16:53:25.830Z,1.00
2019-03-28T16:55:29.839Z,1.00
2019-03-28T16:57:33.644Z,1.00
2019-03-28T16:59:38.145Z,1.00
2019-03-28T17:01:42.488Z,1.00
2019-03-28T17:03:46.696Z,1.00
2019-03-28T17:05:52.991Z,1.40
2019-03-28T17:07:56.736Z,1.70
2019-03-28T17:10:01.623Z,1.90
2019-03-28T17:12:05.814Z,2.40
2019-03-28T17:14:09.498Z,3.00
2019-03-28T17:16:13.193Z,2.60
2019-03-28T17:18:18.886Z,2.00
2019-03-28T17:20:26.276Z,1.20
2019-03-28T17:22:30.271Z,1.70
2019-03-28T17:24:34.257Z,2.10
2019-03-28T17:26:39.211Z,2.40
2019-03-28T17:28:43.909Z,2.10
2019-03-28T17:30:47.593Z,2.40
2019-03-28T17:32:51.721Z,2.40
2019-03-28T17:34:55.324Z,1.70
2019-03-28T17:36:59.516Z,1.80
2019-03-28T17:39:04.968Z,1.00
2019-03-28T17:41:08.871Z,1.10
2019-03-28T17:43:12.583Z,2.70
2019-03-28T17:45:16.434Z,2.50
2019-03-28T17:47:20.298Z,2.60
2019-03-28T17:49:24.159Z,2.70
2019-03-28T17:51:27.892Z,3.10
2019-03-28T17:53:31.974Z,3.50
2019-03-28T17:55:35.720Z,3.40
2019-03-28T17:57:41.835Z,3.90
2019-03-28T17:59:46.036Z,4.00
2019-03-28T18:01:50.472Z,3.40
2019-03-28T18:03:54.206Z,4.20
2019-03-28T18:05:58.774Z,3.40
2019-03-28T18:08:02.652Z,5.10
2019-03-28T18:10:06.700Z,4.30
2019-03-28T18:12:11.743Z,5.60
2019-03-28T18:14:15.589Z,5.50
2019-03-28T18:16:19.332Z,6.50
2019-03-28T18:18:23.057Z,6.50
2019-03-28T18:20:27.053Z,6.80
2019-03-28T18:22:30.863Z,8.10
2019-03-28T18:24:35.284Z,7.50
2019-03-28T18:26:39.297Z,7.70
2019-03-28T18:28:43.168Z,8.00
2019-03-28T18:30:47.077Z,8.30
2019-03-28T18:32:52.992Z,8.90
2019-03-28T18:35:05.307Z,9.10
2019-03-28T18:37:02.442Z,9.10
2019-03-28T18:39:06.768Z,9.10
2019-03-28T18:41:10.364Z,9.60
2019-03-28T18:43:14.187Z,10.50
2019-03-28T18:45:18.590Z,10.70
2019-03-28T18:47:22.548Z,11.10
2019-03-28T18:49:26.259Z,11.40
2019-03-28T18:51:30.000Z,11.50
2019-03-28T18:53:33.699Z,11.80
2019-03-28T18:55:37.980Z,12.20
2019-03-28T18:57:41.824Z,12.40
2019-03-28T18:59:45.659Z,12.70
2019-03-28T19:01:49.380Z,13.40
2019-03-28T19:03:53.033Z,13.20
2019-03-28T19:05:56.743Z,13.50
2019-03-28T19:08:00.993Z,13.70
2019-03-28T19:10:06.775Z,14.10
2019-03-28T19:12:10.967Z,14.00
2019-03-28T19:14:14.908Z,14.60
2019-03-28T19:16:21.626Z,14.60
2019-03-28T19:18:24.222Z,14.70
2019-03-28T19:20:27.955Z,15.30
2019-03-28T19:22:31.572Z,15.30
2019-03-28T19:24:35.254Z,15.50
2019-03-28T19:26:38.905Z,15.70
2019-03-28T19:28:42.594Z,16.30
2019-03-28T19:30:46.255Z,16.40
2019-03-28T19:32:51.106Z,16.50
2019-03-28T19:34:54.822Z,16.90
2019-03-28T19:36:59.083Z,17.40
2019-03-28T19:39:10.581Z,17.60
2019-03-28T19:41:09.156Z,17.80
2019-03-28T19:43:20.392Z,17.70
2019-03-28T19:45:36.054Z,17.80
2019-03-28T19:47:40.219Z,18.00
2019-03-28T19:49:43.870Z,18.50
2019-03-28T19:51:47.894Z,18.70
2019-03-28T19:53:51.579Z,19.00
2019-03-28T19:55:55.241Z,19.30
2019-03-28T19:57:58.909Z,19.30
2019-03-28T20:00:02.720Z,19.30
2019-03-28T20:02:06.463Z,20.30
2019-03-28T20:04:10.048Z,19.90
2019-03-28T20:06:22.162Z,20.30
2019-03-28T20:08:21.905Z,20.30
2019-03-28T20:10:25.662Z,20.60
2019-03-28T20:12:29.752Z,21.00
2019-03-28T20:14:33.343Z,21.30
2019-03-28T20:16:36.985Z,21.60
2019-03-28T20:18:43.033Z,21.90
2019-03-28T20:20:46.306Z,22.70
2019-03-28T20:22:50.564Z,22.20
2019-03-28T20:24:54.299Z,22.40
2019-03-28T20:26:57.963Z,23.20
2019-03-28T20:29:01.606Z,23.10
2019-03-28T20:31:05.348Z,23.40
2019-03-28T20:33:09.081Z,23.40
2019-03-28T20:35:13.087Z,23.20
2019-03-28T20:37:16.705Z,23.80
2019-03-28T20:39:21.561Z,23.80
2019-03-28T20:41:25.155Z,24.20
2019-03-28T20:43:28.904Z,23.50
2019-03-28T20:45:32.674Z,22.90
2019-03-28T20:47:38.285Z,22.70
2019-03-28T20:49:41.873Z,22.40
2019-03-28T20:51:45.688Z,22.40
2019-03-28T20:53:49.379Z,23.00
2019-03-28T20:55:53.928Z,22.80
2019-03-28T20:57:57.724Z,23.10
2019-03-28T21:00:01.300Z,22.50
2019-03-28T21:02:05.187Z,22.70
2019-03-28T21:04:09.153Z,22.20
2019-03-28T21:06:15.487Z,22.60
2019-03-28T21:08:18.631Z,22.90
2019-03-28T21:10:24.349Z,22.90
2019-03-28T21:12:28.001Z,23.20
2019-03-28T21:14:31.705Z,23.50
2019-03-28T21:16:38.122Z,23.40
2019-03-28T21:18:42.174Z,23.70
2019-03-28T21:20:46.463Z,23.80
2019-03-28T21:22:50.228Z,23.80
2019-03-28T21:24:53.879Z,23.80
2019-03-28T21:26:57.621Z,23.40
2019-03-28T21:29:01.252Z,23.30
2019-03-28T21:31:06.337Z,23.60
2019-03-28T21:33:10.004Z,23.80
2019-03-28T21:35:13.732Z,24.20
2019-03-28T21:37:17.321Z,24.10
2019-03-28T21:39:21.080Z,24.60
2019-03-28T21:41:24.645Z,25.20
2019-03-28T21:43:28.359Z,25.00
2019-03-28T21:45:32.016Z,25.30
2019-03-28T21:47:35.775Z,25.40
2019-03-28T21:49:39.419Z,25.40
2019-03-28T21:51:45.762Z,25.70
2019-03-28T21:53:48.713Z,26.10
2019-03-28T21:55:55.515Z,26.50
2019-03-28T21:57:57.732Z,27.00
2019-03-28T22:00:01.389Z,26.90
2019-03-28T22:02:05.130Z,26.90
2019-03-28T22:04:09.082Z,26.70
2019-03-28T22:06:12.966Z,27.10
2019-03-28T22:08:16.681Z,26.40
2019-03-28T22:10:20.766Z,26.30
2019-03-28T22:12:24.550Z,26.80
2019-03-28T22:14:29.435Z,27.00
2019-03-28T22:16:33.080Z,27.10
2019-03-28T22:18:36.793Z,27.30
2019-03-28T22:20:40.553Z,28.00
2019-03-28T22:22:44.282Z,28.20
2019-03-28T22:24:48.258Z,28.20
2019-03-28T22:26:51.995Z,28.40
2019-03-28T22:28:55.833Z,28.40
2019-03-28T22:30:59.495Z,28.50
2019-03-28T22:33:03.261Z,28.50
2019-03-28T22:35:09.008Z,28.90
2019-03-28T22:37:12.917Z,29.30
2019-03-28T22:39:16.593Z,29.20
2019-03-28T22:41:20.176Z,29.20
2019-03-28T22:43:23.848Z,29.30
2019-03-28T22:45:27.500Z,29.50
2019-03-28T22:47:34.820Z,29.60
2019-03-28T22:49:36.438Z,29.80
2019-03-28T22:51:40.221Z,29.70
2019-03-28T22:53:43.961Z,30.90
2019-03-28T22:55:47.640Z,30.50
2019-03-28T22:57:54.099Z,31.40
2019-03-28T22:59:58.025Z,31.30
2019-03-28T23:02:02.935Z,30.30
2019-03-28T23:04:06.701Z,30.80
2019-03-28T23:06:10.487Z,31.30
2019-03-28T23:08:14.272Z,31.70
2019-03-28T23:10:20.833Z,31.60
2019-03-28T23:12:23.273Z,31.50
2019-03-28T23:14:26.949Z,31.20
2019-03-28T23:16:30.620Z,31.20
2019-03-28T23:18:34.289Z,31.30
2019-03-28T23:20:38.021Z,31.20
2019-03-28T23:22:41.725Z,31.00
2019-03-28T23:24:45.505Z,30.30
2019-03-28T23:26:49.113Z,31.00
2019-03-28T23:28:52.809Z,30.90
2019-03-28T23:30:56.529Z,31.40
2019-03-28T23:33:00.115Z,31.40
2019-03-28T23:35:04.090Z,32.50
2019-03-28T23:37:07.720Z,32.60
2019-03-28T23:39:11.778Z,32.50
2019-03-28T23:41:15.514Z,32.60
2019-03-28T23:43:19.169Z,33.30
2019-03-28T23:45:22.905Z,33.40
2019-03-28T23:47:26.459Z,33.60
2019-03-28T23:49:30.212Z,33.20
2019-03-28T23:51:33.796Z,33.70
2019-03-28T23:53:37.500Z,33.70
2019-03-28T23:55:41.238Z,33.50
2019-03-28T23:57:44.827Z,34.40
2019-03-28T23:59:48.440Z,34.70
